sensor_id;sensor_type;location;lat;lon;timestamp;P1;durP1;ratioP1;P2;durP2;ratioP2
19579;SDS011;9936;51.040;13.918;2023-11-21T00:03:17;2.87;;;0.93;;
19579;SDS011;9936;51.040;13.918;2023-11-21T00:07:26;2.73;;;0.90;;
19579;SDS011;9936;51.040;13.918;2023-11-21T00:11:12;3.00;;;1.10;;
19579;SDS011;9936;51.040;13.918;2023-11-21T00:15:08;2.40;;;1.00;;
19579;SDS011;9936;51.040;13.918;2023-11-21T00:19:01;2.70;;;0.90;;
19579;SDS011;9936;51.040;13.918;2023-11-21T00:22:48;2.20;;;1.10;;
19579;SDS011;9936;51.040;13.918;2023-11-21T00:26:52;3.00;;;1.10;;
19579;SDS011;9936;51.040;13.918;2023-11-21T00:30:40;2.03;;;1.20;;
19579;SDS011;9936;51.040;13.918;2023-11-21T00:34:36;2.23;;;1.07;;
19579;SDS011;9936;51.040;13.918;2023-11-21T00:38:25;1.77;;;1.20;;
19579;SDS011;9936;51.040;13.918;2023-11-21T00:42:15;1.30;;;1.00;;
19579;SDS011;9936;51.040;13.918;2023-11-21T00:46:05;1.93;;;0.90;;
19579;SDS011;9936;51.040;13.918;2023-11-21T00:50:16;1.40;;;1.20;;
19579;SDS011;9936;51.040;13.918;2023-11-21T00:54:05;3.13;;;1.60;;
19579;SDS011;9936;51.040;13.918;2023-11-21T00:57:53;2.30;;;1.40;;
19579;SDS011;9936;51.040;13.918;2023-11-21T01:01:46;2.03;;;1.53;;
19579;SDS011;9936;51.040;13.918;2023-11-21T01:05:54;1.83;;;1.43;;
19579;SDS011;9936;51.040;13.918;2023-11-21T01:09:41;2.10;;;1.50;;
19579;SDS011;9936;51.040;13.918;2023-11-21T01:13:32;2.67;;;1.50;;
19579;SDS011;9936;51.040;13.918;2023-11-21T01:17:39;3.73;;;1.73;;
19579;SDS011;9936;51.040;13.918;2023-11-21T01:21:26;5.53;;;1.87;;
19579;SDS011;9936;51.040;13.918;2023-11-21T01:25:25;3.33;;;1.87;;
19579;SDS011;9936;51.040;13.918;2023-11-21T01:29:15;5.60;;;2.03;;
19579;SDS011;9936;51.040;13.918;2023-11-21T01:33:24;6.63;;;2.00;;
19579;SDS011;9936;51.040;13.918;2023-11-21T01:37:33;7.67;;;2.57;;
19579;SDS011;9936;51.040;13.918;2023-11-21T01:41:23;4.80;;;1.63;;
19579;SDS011;9936;51.040;13.918;2023-11-21T01:45:16;2.97;;;1.90;;
19579;SDS011;9936;51.040;13.918;2023-11-21T01:49:12;2.37;;;1.70;;
19579;SDS011;9936;51.040;13.918;2023-11-21T01:53:00;7.43;;;2.30;;
19579;SDS011;9936;51.040;13.918;2023-11-21T01:57:02;3.17;;;1.50;;
19579;SDS011;9936;51.040;13.918;2023-11-21T02:01:10;6.67;;;1.63;;
19579;SDS011;9936;51.040;13.918;2023-11-21T02:05:01;3.83;;;1.87;;
19579;SDS011;9936;51.040;13.918;2023-11-21T02:08:57;3.67;;;1.97;;
19579;SDS011;9936;51.040;13.918;2023-11-21T02:12:51;3.27;;;1.80;;
19579;SDS011;9936;51.040;13.918;2023-11-21T02:17:04;4.43;;;1.80;;
19579;SDS011;9936;51.040;13.918;2023-11-21T02:21:03;4.80;;;2.00;;
19579;SDS011;9936;51.040;13.918;2023-11-21T02:24:51;6.23;;;2.43;;
19579;SDS011;9936;51.040;13.918;2023-11-21T02:28:49;4.83;;;1.80;;
19579;SDS011;9936;51.040;13.918;2023-11-21T02:32:54;4.53;;;2.30;;
19579;SDS011;9936;51.040;13.918;2023-11-21T02:36:54;9.03;;;2.10;;
19579;SDS011;9936;51.040;13.918;2023-11-21T02:40:51;6.20;;;2.30;;
19579;SDS011;9936;51.040;13.918;2023-11-21T02:45:12;4.17;;;1.90;;
19579;SDS011;9936;51.040;13.918;2023-11-21T02:49:37;6.53;;;2.30;;
19579;SDS011;9936;51.040;13.918;2023-11-21T02:53:31;2.63;;;2.00;;
19579;SDS011;9936;51.040;13.918;2023-11-21T02:57:42;4.90;;;1.77;;
19579;SDS011;9936;51.040;13.918;2023-11-21T03:01:36;3.97;;;2.13;;
19579;SDS011;9936;51.040;13.918;2023-11-21T03:05:45;6.03;;;2.50;;
19579;SDS011;9936;51.040;13.918;2023-11-21T03:09:53;5.23;;;2.10;;
19579;SDS011;9936;51.040;13.918;2023-11-21T03:13:43;4.17;;;2.00;;
19579;SDS011;9936;51.040;13.918;2023-11-21T03:18:09;5.27;;;2.10;;
19579;SDS011;9936;51.040;13.918;2023-11-21T03:22:22;5.07;;;1.80;;
19579;SDS011;9936;51.040;13.918;2023-11-21T03:26:41;4.27;;;2.07;;
19579;SDS011;9936;51.040;13.918;2023-11-21T03:35:15;5.40;;;2.20;;
19579;SDS011;9936;51.040;13.918;2023-11-21T03:39:41;4.73;;;2.03;;
19579;SDS011;9936;51.040;13.918;2023-11-21T03:43:37;3.90;;;2.10;;
19579;SDS011;9936;51.040;13.918;2023-11-21T03:47:50;2.87;;;1.83;;
19579;SDS011;9936;51.040;13.918;2023-11-21T03:51:50;3.47;;;2.00;;
19579;SDS011;9936;51.040;13.918;2023-11-21T04:00:12;3.40;;;1.87;;
19579;SDS011;9936;51.040;13.918;2023-11-21T04:04:29;4.50;;;1.97;;
19579;SDS011;9936;51.040;13.918;2023-11-21T04:08:30;5.57;;;1.90;;
19579;SDS011;9936;51.040;13.918;2023-11-21T04:12:26;4.30;;;2.20;;
19579;SDS011;9936;51.040;13.918;2023-11-21T04:16:58;3.63;;;1.87;;
19579;SDS011;9936;51.040;13.918;2023-11-21T04:21:00;4.23;;;2.13;;
19579;SDS011;9936;51.040;13.918;2023-11-21T04:24:53;6.43;;;2.30;;
19579;SDS011;9936;51.040;13.918;2023-11-21T04:29:05;7.97;;;2.70;;
19579;SDS011;9936;51.040;13.918;2023-11-21T04:33:03;3.80;;;2.10;;
19579;SDS011;9936;51.040;13.918;2023-11-21T04:37:35;4.70;;;2.27;;
19579;SDS011;9936;51.040;13.918;2023-11-21T04:41:34;5.73;;;2.50;;
19579;SDS011;9936;51.040;13.918;2023-11-21T04:54:56;3.87;;;1.87;;
19579;SDS011;9936;51.040;13.918;2023-11-21T04:59:00;4.97;;;2.40;;
19579;SDS011;9936;51.040;13.918;2023-11-21T05:02:58;9.33;;;2.80;;
19579;SDS011;9936;51.040;13.918;2023-11-21T05:06:46;5.53;;;2.47;;
19579;SDS011;9936;51.040;13.918;2023-11-21T05:10:41;7.23;;;2.70;;
19579;SDS011;9936;51.040;13.918;2023-11-21T05:14:56;7.00;;;2.27;;
19579;SDS011;9936;51.040;13.918;2023-11-21T05:18:51;7.07;;;2.80;;
19579;SDS011;9936;51.040;13.918;2023-11-21T05:22:46;7.67;;;2.70;;
19579;SDS011;9936;51.040;13.918;2023-11-21T05:26:34;7.63;;;2.87;;
19579;SDS011;9936;51.040;13.918;2023-11-21T05:30:20;4.87;;;2.90;;
19579;SDS011;9936;51.040;13.918;2023-11-21T05:34:08;4.83;;;2.97;;
19579;SDS011;9936;51.040;13.918;2023-11-21T05:37:53;6.03;;;3.17;;
19579;SDS011;9936;51.040;13.918;2023-11-21T05:41:51;9.07;;;3.27;;
19579;SDS011;9936;51.040;13.918;2023-11-21T05:45:37;9.80;;;3.10;;
19579;SDS011;9936;51.040;13.918;2023-11-21T05:49:23;6.50;;;2.60;;
19579;SDS011;9936;51.040;13.918;2023-11-21T05:53:12;12.03;;;3.63;;
19579;SDS011;9936;51.040;13.918;2023-11-21T05:57:01;8.70;;;4.30;;
19579;SDS011;9936;51.040;13.918;2023-11-21T06:00:47;7.07;;;3.90;;
19579;SDS011;9936;51.040;13.918;2023-11-21T06:04:33;7.60;;;3.60;;
19579;SDS011;9936;51.040;13.918;2023-11-21T06:08:19;4.47;;;3.20;;
19579;SDS011;9936;51.040;13.918;2023-11-21T06:12:05;6.63;;;3.50;;
19579;SDS011;9936;51.040;13.918;2023-11-21T06:15:58;6.33;;;3.30;;
19579;SDS011;9936;51.040;13.918;2023-11-21T06:19:55;10.50;;;4.10;;
19579;SDS011;9936;51.040;13.918;2023-11-21T06:23:47;6.40;;;3.20;;
19579;SDS011;9936;51.040;13.918;2023-11-21T06:27:43;5.07;;;2.93;;
19579;SDS011;9936;51.040;13.918;2023-11-21T06:31:33;6.27;;;3.20;;
19579;SDS011;9936;51.040;13.918;2023-11-21T06:35:25;5.13;;;3.23;;
19579;SDS011;9936;51.040;13.918;2023-11-21T06:39:22;9.20;;;3.57;;
19579;SDS011;9936;51.040;13.918;2023-11-21T06:43:11;7.60;;;3.30;;
19579;SDS011;9936;51.040;13.918;2023-11-21T06:47:02;7.30;;;3.17;;
19579;SDS011;9936;51.040;13.918;2023-11-21T06:50:54;8.20;;;4.20;;
19579;SDS011;9936;51.040;13.918;2023-11-21T06:54:41;12.13;;;5.63;;
19579;SDS011;9936;51.040;13.918;2023-11-21T06:58:43;16.73;;;7.80;;
19579;SDS011;9936;51.040;13.918;2023-11-21T07:02:40;13.23;;;7.67;;
19579;SDS011;9936;51.040;13.918;2023-11-21T07:06:35;17.87;;;6.20;;
19579;SDS011;9936;51.040;13.918;2023-11-21T07:10:47;12.53;;;5.93;;
19579;SDS011;9936;51.040;13.918;2023-11-21T07:14:39;12.23;;;4.50;;
19579;SDS011;9936;51.040;13.918;2023-11-21T07:18:31;10.00;;;4.63;;
19579;SDS011;9936;51.040;13.918;2023-11-21T07:22:19;8.63;;;4.20;;
19579;SDS011;9936;51.040;13.918;2023-11-21T07:26:08;10.07;;;4.83;;
19579;SDS011;9936;51.040;13.918;2023-11-21T07:29:54;11.37;;;4.80;;
19579;SDS011;9936;51.040;13.918;2023-11-21T07:33:42;14.27;;;5.10;;
19579;SDS011;9936;51.040;13.918;2023-11-21T07:37:28;9.97;;;4.93;;
19579;SDS011;9936;51.040;13.918;2023-11-21T07:41:15;11.60;;;4.63;;
19579;SDS011;9936;51.040;13.918;2023-11-21T07:45:07;12.60;;;5.07;;
19579;SDS011;9936;51.040;13.918;2023-11-21T07:49:01;9.70;;;5.03;;
19579;SDS011;9936;51.040;13.918;2023-11-21T07:53:02;14.23;;;4.67;;
19579;SDS011;9936;51.040;13.918;2023-11-21T07:56:53;16.33;;;5.50;;
19579;SDS011;9936;51.040;13.918;2023-11-21T08:00:43;12.93;;;5.50;;
19579;SDS011;9936;51.040;13.918;2023-11-21T08:04:34;11.50;;;5.30;;
19579;SDS011;9936;51.040;13.918;2023-11-21T08:08:24;12.50;;;4.97;;
19579;SDS011;9936;51.040;13.918;2023-11-21T08:12:14;11.00;;;5.33;;
19579;SDS011;9936;51.040;13.918;2023-11-21T08:16:01;14.33;;;5.73;;
19579;SDS011;9936;51.040;13.918;2023-11-21T08:19:50;12.83;;;5.80;;
19579;SDS011;9936;51.040;13.918;2023-11-21T08:23:36;17.20;;;6.77;;
19579;SDS011;9936;51.040;13.918;2023-11-21T08:27:22;14.87;;;6.80;;
19579;SDS011;9936;51.040;13.918;2023-11-21T08:31:08;12.57;;;6.17;;
19579;SDS011;9936;51.040;13.918;2023-11-21T08:34:55;14.03;;;6.57;;
19579;SDS011;9936;51.040;13.918;2023-11-21T08:38:41;17.87;;;7.03;;
19579;SDS011;9936;51.040;13.918;2023-11-21T08:42:27;14.77;;;6.63;;
19579;SDS011;9936;51.040;13.918;2023-11-21T08:46:15;12.37;;;6.13;;
19579;SDS011;9936;51.040;13.918;2023-11-21T08:50:03;12.73;;;7.43;;
19579;SDS011;9936;51.040;13.918;2023-11-21T08:53:54;13.53;;;6.40;;
19579;SDS011;9936;51.040;13.918;2023-11-21T08:57:47;11.97;;;7.50;;
19579;SDS011;9936;51.040;13.918;2023-11-21T09:01:33;10.43;;;5.23;;
19579;SDS011;9936;51.040;13.918;2023-11-21T09:05:20;10.93;;;5.77;;
19579;SDS011;9936;51.040;13.918;2023-11-21T09:09:06;10.87;;;5.60;;
19579;SDS011;9936;51.040;13.918;2023-11-21T09:12:53;11.87;;;4.60;;
19579;SDS011;9936;51.040;13.918;2023-11-21T09:16:48;11.43;;;5.67;;
19579;SDS011;9936;51.040;13.918;2023-11-21T09:20:38;17.87;;;6.10;;
19579;SDS011;9936;51.040;13.918;2023-11-21T09:24:29;12.70;;;5.30;;
19579;SDS011;9936;51.040;13.918;2023-11-21T09:28:20;8.60;;;5.20;;
19579;SDS011;9936;51.040;13.918;2023-11-21T09:32:11;6.87;;;5.03;;
19579;SDS011;9936;51.040;13.918;2023-11-21T09:36:04;6.03;;;4.70;;
19579;SDS011;9936;51.040;13.918;2023-11-21T09:40:22;10.03;;;6.93;;
19579;SDS011;9936;51.040;13.918;2023-11-21T09:44:32;7.20;;;5.30;;
19579;SDS011;9936;51.040;13.918;2023-11-21T09:48:31;7.03;;;4.97;;
19579;SDS011;9936;51.040;13.918;2023-11-21T09:52:28;6.90;;;4.23;;
19579;SDS011;9936;51.040;13.918;2023-11-21T09:56:37;7.57;;;3.70;;
19579;SDS011;9936;51.040;13.918;2023-11-21T10:00:35;10.50;;;4.43;;
19579;SDS011;9936;51.040;13.918;2023-11-21T10:04:34;4.27;;;2.87;;
19579;SDS011;9936;51.040;13.918;2023-11-21T10:08:46;2.67;;;2.20;;
19579;SDS011;9936;51.040;13.918;2023-11-21T10:13:01;5.83;;;3.43;;
19579;SDS011;9936;51.040;13.918;2023-11-21T10:17:12;43.50;;;6.07;;
19579;SDS011;9936;51.040;13.918;2023-11-21T10:21:04;3.17;;;2.50;;
19579;SDS011;9936;51.040;13.918;2023-11-21T10:25:06;3.40;;;2.60;;
19579;SDS011;9936;51.040;13.918;2023-11-21T10:29:24;3.20;;;2.67;;
19579;SDS011;9936;51.040;13.918;2023-11-21T10:33:34;6.23;;;3.33;;
19579;SDS011;9936;51.040;13.918;2023-11-21T10:37:30;3.47;;;3.10;;
19579;SDS011;9936;51.040;13.918;2023-11-21T10:41:23;29.37;;;3.83;;
19579;SDS011;9936;51.040;13.918;2023-11-21T10:45:17;4.07;;;3.47;;
19579;SDS011;9936;51.040;13.918;2023-11-21T10:49:05;11.40;;;3.90;;
19579;SDS011;9936;51.040;13.918;2023-11-21T10:52:56;4.20;;;3.30;;
19579;SDS011;9936;51.040;13.918;2023-11-21T10:56:44;5.27;;;3.87;;
19579;SDS011;9936;51.040;13.918;2023-11-21T11:00:37;5.67;;;4.13;;
19579;SDS011;9936;51.040;13.918;2023-11-21T11:04:47;6.03;;;4.07;;
19579;SDS011;9936;51.040;13.918;2023-11-21T11:08:34;8.23;;;4.33;;
19579;SDS011;9936;51.040;13.918;2023-11-21T11:12:24;10.77;;;7.07;;
19579;SDS011;9936;51.040;13.918;2023-11-21T11:16:23;8.23;;;5.97;;
19579;SDS011;9936;51.040;13.918;2023-11-21T11:20:30;13.03;;;7.23;;
19579;SDS011;9936;51.040;13.918;2023-11-21T11:33:00;13.57;;;8.07;;
19579;SDS011;9936;51.040;13.918;2023-11-21T11:37:11;12.53;;;8.13;;
19579;SDS011;9936;51.040;13.918;2023-11-21T11:45:21;35.13;;;9.43;;
19579;SDS011;9936;51.040;13.918;2023-11-21T11:49:29;14.23;;;7.63;;
19579;SDS011;9936;51.040;13.918;2023-11-21T11:54:05;14.90;;;7.33;;
19579;SDS011;9936;51.040;13.918;2023-11-21T11:58:01;9.97;;;6.97;;
19579;SDS011;9936;51.040;13.918;2023-11-21T12:01:52;11.27;;;7.63;;
19579;SDS011;9936;51.040;13.918;2023-11-21T12:05:47;10.80;;;6.67;;
19579;SDS011;9936;51.040;13.918;2023-11-21T12:09:46;11.40;;;7.17;;
19579;SDS011;9936;51.040;13.918;2023-11-21T12:13:41;9.40;;;5.90;;
19579;SDS011;9936;51.040;13.918;2023-11-21T12:17:27;9.93;;;6.20;;
19579;SDS011;9936;51.040;13.918;2023-11-21T12:21:13;12.30;;;7.33;;
19579;SDS011;9936;51.040;13.918;2023-11-21T12:29:02;9.33;;;6.07;;
19579;SDS011;9936;51.040;13.918;2023-11-21T12:32:55;13.87;;;7.47;;
19579;SDS011;9936;51.040;13.918;2023-11-21T12:36:44;14.97;;;7.53;;
19579;SDS011;9936;51.040;13.918;2023-11-21T12:40:30;12.77;;;7.73;;
19579;SDS011;9936;51.040;13.918;2023-11-21T12:44:18;10.27;;;6.60;;
19579;SDS011;9936;51.040;13.918;2023-11-21T12:48:11;9.77;;;6.40;;
19579;SDS011;9936;51.040;13.918;2023-11-21T12:51:59;11.90;;;7.27;;
19579;SDS011;9936;51.040;13.918;2023-11-21T12:55:45;14.47;;;7.27;;
19579;SDS011;9936;51.040;13.918;2023-11-21T12:59:38;10.63;;;6.67;;
19579;SDS011;9936;51.040;13.918;2023-11-21T13:03:30;11.10;;;6.33;;
19579;SDS011;9936;51.040;13.918;2023-11-21T13:07:17;8.37;;;5.73;;
19579;SDS011;9936;51.040;13.918;2023-11-21T13:11:08;8.43;;;5.30;;
19579;SDS011;9936;51.040;13.918;2023-11-21T13:15:05;8.60;;;5.50;;
19579;SDS011;9936;51.040;13.918;2023-11-21T13:18:58;7.00;;;5.10;;
19579;SDS011;9936;51.040;13.918;2023-11-21T13:22:48;7.90;;;5.00;;
19579;SDS011;9936;51.040;13.918;2023-11-21T13:26:38;7.03;;;4.87;;
19579;SDS011;9936;51.040;13.918;2023-11-21T13:30:24;10.20;;;6.20;;
19579;SDS011;9936;51.040;13.918;2023-11-21T13:34:18;11.03;;;6.37;;
19579;SDS011;9936;51.040;13.918;2023-11-21T13:38:09;8.43;;;6.17;;
19579;SDS011;9936;51.040;13.918;2023-11-21T13:42:03;10.87;;;6.07;;
19579;SDS011;9936;51.040;13.918;2023-11-21T13:45:57;10.47;;;5.90;;
19579;SDS011;9936;51.040;13.918;2023-11-21T13:49:58;13.37;;;7.77;;
19579;SDS011;9936;51.040;13.918;2023-11-21T13:53:45;15.43;;;7.47;;
19579;SDS011;9936;51.040;13.918;2023-11-21T13:57:35;13.97;;;7.70;;
19579;SDS011;9936;51.040;13.918;2023-11-21T14:01:24;19.27;;;9.33;;
19579;SDS011;9936;51.040;13.918;2023-11-21T14:05:38;15.63;;;9.40;;
19579;SDS011;9936;51.040;13.918;2023-11-21T14:09:26;15.30;;;8.20;;
19579;SDS011;9936;51.040;13.918;2023-11-21T14:13:17;17.03;;;8.37;;
19579;SDS011;9936;51.040;13.918;2023-11-21T14:20:56;16.47;;;8.77;;
19579;SDS011;9936;51.040;13.918;2023-11-21T14:28:32;18.67;;;9.47;;
19579;SDS011;9936;51.040;13.918;2023-11-21T14:32:23;22.63;;;10.00;;
19579;SDS011;9936;51.040;13.918;2023-11-21T14:36:10;20.93;;;10.67;;
19579;SDS011;9936;51.040;13.918;2023-11-21T14:39:56;20.87;;;10.53;;
19579;SDS011;9936;51.040;13.918;2023-11-21T14:43:42;15.67;;;8.93;;
19579;SDS011;9936;51.040;13.918;2023-11-21T14:47:30;27.97;;;13.13;;
19579;SDS011;9936;51.040;13.918;2023-11-21T14:56:00;17.30;;;8.97;;
19579;SDS011;9936;51.040;13.918;2023-11-21T14:59:50;12.20;;;6.93;;
19579;SDS011;9936;51.040;13.918;2023-11-21T15:03:42;11.93;;;7.60;;
19579;SDS011;9936;51.040;13.918;2023-11-21T15:07:34;11.73;;;6.80;;
19579;SDS011;9936;51.040;13.918;2023-11-21T15:11:21;13.57;;;6.67;;
19579;SDS011;9936;51.040;13.918;2023-11-21T15:15:14;11.60;;;5.87;;
19579;SDS011;9936;51.040;13.918;2023-11-21T15:19:02;9.27;;;5.67;;
19579;SDS011;9936;51.040;13.918;2023-11-21T15:22:50;8.77;;;5.40;;
19579;SDS011;9936;51.040;13.918;2023-11-21T15:26:36;10.20;;;7.17;;
19579;SDS011;9936;51.040;13.918;2023-11-21T15:30:23;12.33;;;8.17;;
19579;SDS011;9936;51.040;13.918;2023-11-21T15:38:18;16.73;;;11.03;;
19579;SDS011;9936;51.040;13.918;2023-11-21T15:42:05;18.43;;;11.60;;
19579;SDS011;9936;51.040;13.918;2023-11-21T15:46:12;18.23;;;13.83;;
19579;SDS011;9936;51.040;13.918;2023-11-21T15:49:59;12.13;;;7.43;;
19579;SDS011;9936;51.040;13.918;2023-11-21T15:53:47;13.10;;;7.43;;
19579;SDS011;9936;51.040;13.918;2023-11-21T15:57:33;17.98;;;12.75;;
19579;SDS011;9936;51.040;13.918;2023-11-21T16:01:26;15.33;;;10.30;;
19579;SDS011;9936;51.040;13.918;2023-11-21T16:09:12;24.20;;;14.20;;
19579;SDS011;9936;51.040;13.918;2023-11-21T16:13:08;15.17;;;10.27;;
19579;SDS011;9936;51.040;13.918;2023-11-21T16:16:54;10.43;;;6.93;;
19579;SDS011;9936;51.040;13.918;2023-11-21T16:20:39;16.97;;;9.03;;
19579;SDS011;9936;51.040;13.918;2023-11-21T16:28:23;5.60;;;4.00;;
19579;SDS011;9936;51.040;13.918;2023-11-21T16:32:15;9.80;;;5.87;;
19579;SDS011;9936;51.040;13.918;2023-11-21T16:36:02;6.97;;;4.40;;
19579;SDS011;9936;51.040;13.918;2023-11-21T16:39:51;9.33;;;5.87;;
19579;SDS011;9936;51.040;13.918;2023-11-21T16:43:40;13.00;;;7.57;;
19579;SDS011;9936;51.040;13.918;2023-11-21T16:47:26;3.90;;;2.60;;
19579;SDS011;9936;51.040;13.918;2023-11-21T16:51:11;2.20;;;1.70;;
19579;SDS011;9936;51.040;13.918;2023-11-21T16:55:02;2.83;;;1.80;;
19579;SDS011;9936;51.040;13.918;2023-11-21T16:58:48;2.40;;;2.10;;
19579;SDS011;9936;51.040;13.918;2023-11-21T17:02:40;2.87;;;2.37;;
19579;SDS011;9936;51.040;13.918;2023-11-21T17:06:27;4.03;;;2.20;;
19579;SDS011;9936;51.040;13.918;2023-11-21T17:14:32;3.60;;;2.63;;
19579;SDS011;9936;51.040;13.918;2023-11-21T17:18:19;5.43;;;3.50;;
19579;SDS011;9936;51.040;13.918;2023-11-21T17:22:21;3.93;;;2.87;;
19579;SDS011;9936;51.040;13.918;2023-11-21T17:26:07;2.87;;;2.30;;
19579;SDS011;9936;51.040;13.918;2023-11-21T17:29:52;2.90;;;2.50;;
19579;SDS011;9936;51.040;13.918;2023-11-21T17:33:39;4.13;;;2.97;;
19579;SDS011;9936;51.040;13.918;2023-11-21T17:37:24;8.43;;;4.60;;
19579;SDS011;9936;51.040;13.918;2023-11-21T17:41:10;5.03;;;3.47;;
19579;SDS011;9936;51.040;13.918;2023-11-21T17:48:48;5.30;;;3.80;;
19579;SDS011;9936;51.040;13.918;2023-11-21T17:52:37;5.83;;;3.43;;
19579;SDS011;9936;51.040;13.918;2023-11-21T17:56:23;6.63;;;4.03;;
19579;SDS011;9936;51.040;13.918;2023-11-21T18:00:09;29.97;;;11.33;;
19579;SDS011;9936;51.040;13.918;2023-11-21T18:03:57;9.93;;;6.90;;
19579;SDS011;9936;51.040;13.918;2023-11-21T18:07:44;5.00;;;3.57;;
19579;SDS011;9936;51.040;13.918;2023-11-21T18:11:30;12.23;;;7.97;;
19579;SDS011;9936;51.040;13.918;2023-11-21T18:19:05;7.10;;;4.60;;
19579;SDS011;9936;51.040;13.918;2023-11-21T18:22:51;9.07;;;5.67;;
19579;SDS011;9936;51.040;13.918;2023-11-21T18:26:37;7.10;;;4.70;;
19579;SDS011;9936;51.040;13.918;2023-11-21T18:30:23;4.10;;;3.40;;
19579;SDS011;9936;51.040;13.918;2023-11-21T18:34:10;6.97;;;4.97;;
19579;SDS011;9936;51.040;13.918;2023-11-21T18:38:00;7.47;;;6.10;;
19579;SDS011;9936;51.040;13.918;2023-11-21T18:41:45;6.57;;;4.50;;
19579;SDS011;9936;51.040;13.918;2023-11-21T18:45:33;7.87;;;5.47;;
19579;SDS011;9936;51.040;13.918;2023-11-21T18:49:19;3.80;;;2.90;;
19579;SDS011;9936;51.040;13.918;2023-11-21T18:53:05;3.60;;;2.77;;
19579;SDS011;9936;51.040;13.918;2023-11-21T18:56:51;3.37;;;2.53;;
19579;SDS011;9936;51.040;13.918;2023-11-21T19:00:39;6.30;;;2.37;;
19579;SDS011;9936;51.040;13.918;2023-11-21T19:04:25;2.83;;;2.30;;
19579;SDS011;9936;51.040;13.918;2023-11-21T19:08:13;3.30;;;2.77;;
19579;SDS011;9936;51.040;13.918;2023-11-21T19:11:59;2.77;;;2.40;;
19579;SDS011;9936;51.040;13.918;2023-11-21T19:15:45;2.83;;;2.47;;
19579;SDS011;9936;51.040;13.918;2023-11-21T19:19:34;2.40;;;2.20;;
19579;SDS011;9936;51.040;13.918;2023-11-21T19:23:20;3.30;;;2.40;;
19579;SDS011;9936;51.040;13.918;2023-11-21T19:27:06;3.03;;;2.70;;
19579;SDS011;9936;51.040;13.918;2023-11-21T19:34:41;3.87;;;2.63;;
19579;SDS011;9936;51.040;13.918;2023-11-21T19:38:27;3.13;;;2.53;;
19579;SDS011;9936;51.040;13.918;2023-11-21T19:42:13;3.23;;;2.50;;
19579;SDS011;9936;51.040;13.918;2023-11-21T19:45:59;4.73;;;3.20;;
19579;SDS011;9936;51.040;13.918;2023-11-21T19:49:44;4.63;;;3.93;;
19579;SDS011;9936;51.040;13.918;2023-11-21T19:53:30;3.30;;;2.97;;
19579;SDS011;9936;51.040;13.918;2023-11-21T19:57:17;4.47;;;2.83;;
19579;SDS011;9936;51.040;13.918;2023-11-21T20:01:03;4.47;;;3.27;;
19579;SDS011;9936;51.040;13.918;2023-11-21T20:04:49;3.80;;;2.90;;
19579;SDS011;9936;51.040;13.918;2023-11-21T20:08:34;5.13;;;3.73;;
19579;SDS011;9936;51.040;13.918;2023-11-21T20:12:21;3.90;;;3.20;;
19579;SDS011;9936;51.040;13.918;2023-11-21T20:16:06;3.20;;;2.30;;
19579;SDS011;9936;51.040;13.918;2023-11-21T20:19:52;3.53;;;2.77;;
19579;SDS011;9936;51.040;13.918;2023-11-21T20:23:39;3.70;;;3.00;;
19579;SDS011;9936;51.040;13.918;2023-11-21T20:27:25;3.30;;;3.00;;
19579;SDS011;9936;51.040;13.918;2023-11-21T20:31:13;4.53;;;3.57;;
19579;SDS011;9936;51.040;13.918;2023-11-21T20:34:59;8.17;;;4.03;;
19579;SDS011;9936;51.040;13.918;2023-11-21T20:38:46;4.17;;;3.23;;
19579;SDS011;9936;51.040;13.918;2023-11-21T20:42:31;7.57;;;3.23;;
19579;SDS011;9936;51.040;13.918;2023-11-21T20:46:17;5.10;;;3.30;;
19579;SDS011;9936;51.040;13.918;2023-11-21T20:50:03;8.57;;;3.87;;
19579;SDS011;9936;51.040;13.918;2023-11-21T20:53:50;4.17;;;2.97;;
19579;SDS011;9936;51.040;13.918;2023-11-21T20:57:35;4.47;;;3.20;;
19579;SDS011;9936;51.040;13.918;2023-11-21T21:01:32;5.50;;;3.10;;
19579;SDS011;9936;51.040;13.918;2023-11-21T21:05:18;3.87;;;3.30;;
19579;SDS011;9936;51.040;13.918;2023-11-21T21:09:07;7.93;;;3.67;;
19579;SDS011;9936;51.040;13.918;2023-11-21T21:16:44;4.60;;;3.73;;
19579;SDS011;9936;51.040;13.918;2023-11-21T21:20:29;5.10;;;4.03;;
19579;SDS011;9936;51.040;13.918;2023-11-21T21:24:15;7.03;;;4.37;;
19579;SDS011;9936;51.040;13.918;2023-11-21T21:28:01;4.90;;;3.80;;
19579;SDS011;9936;51.040;13.918;2023-11-21T21:31:47;6.93;;;4.33;;
19579;SDS011;9936;51.040;13.918;2023-11-21T21:35:34;5.40;;;4.17;;
19579;SDS011;9936;51.040;13.918;2023-11-21T21:39:20;5.13;;;4.13;;
19579;SDS011;9936;51.040;13.918;2023-11-21T21:43:06;5.97;;;3.93;;
19579;SDS011;9936;51.040;13.918;2023-11-21T21:46:52;5.63;;;3.87;;
19579;SDS011;9936;51.040;13.918;2023-11-21T21:50:39;6.03;;;4.23;;
19579;SDS011;9936;51.040;13.918;2023-11-21T21:54:25;6.17;;;4.77;;
19579;SDS011;9936;51.040;13.918;2023-11-21T21:58:13;7.40;;;5.30;;
19579;SDS011;9936;51.040;13.918;2023-11-21T22:01:59;8.53;;;5.67;;
19579;SDS011;9936;51.040;13.918;2023-11-21T22:05:45;6.90;;;5.30;;
19579;SDS011;9936;51.040;13.918;2023-11-21T22:09:31;8.53;;;6.20;;
19579;SDS011;9936;51.040;13.918;2023-11-21T22:13:18;8.93;;;6.03;;
19579;SDS011;9936;51.040;13.918;2023-11-21T22:17:04;8.40;;;6.40;;
19579;SDS011;9936;51.040;13.918;2023-11-21T22:20:49;8.97;;;6.87;;
19579;SDS011;9936;51.040;13.918;2023-11-21T22:24:36;9.53;;;6.97;;
19579;SDS011;9936;51.040;13.918;2023-11-21T22:28:23;13.43;;;6.83;;
19579;SDS011;9936;51.040;13.918;2023-11-21T22:32:08;9.87;;;6.50;;
19579;SDS011;9936;51.040;13.918;2023-11-21T22:35:54;11.23;;;7.47;;
19579;SDS011;9936;51.040;13.918;2023-11-21T22:39:41;10.13;;;7.03;;
19579;SDS011;9936;51.040;13.918;2023-11-21T22:43:27;9.97;;;7.03;;
19579;SDS011;9936;51.040;13.918;2023-11-21T22:47:13;10.60;;;7.43;;
19579;SDS011;9936;51.040;13.918;2023-11-21T22:50:59;9.57;;;6.80;;
19579;SDS011;9936;51.040;13.918;2023-11-21T22:54:44;9.93;;;7.00;;
19579;SDS011;9936;51.040;13.918;2023-11-21T22:58:30;10.90;;;7.00;;
19579;SDS011;9936;51.040;13.918;2023-11-21T23:02:16;10.03;;;6.77;;
19579;SDS011;9936;51.040;13.918;2023-11-21T23:06:02;9.80;;;7.30;;
19579;SDS011;9936;51.040;13.918;2023-11-21T23:09:48;11.70;;;7.70;;
19579;SDS011;9936;51.040;13.918;2023-11-21T23:13:33;10.60;;;7.13;;
19579;SDS011;9936;51.040;13.918;2023-11-21T23:17:19;9.97;;;6.77;;
19579;SDS011;9936;51.040;13.918;2023-11-21T23:21:05;8.97;;;6.13;;
19579;SDS011;9936;51.040;13.918;2023-11-21T23:24:54;12.03;;;7.47;;
19579;SDS011;9936;51.040;13.918;2023-11-21T23:28:39;13.03;;;6.30;;
19579;SDS011;9936;51.040;13.918;2023-11-21T23:32:25;9.60;;;5.73;;
19579;SDS011;9936;51.040;13.918;2023-11-21T23:36:11;10.07;;;7.00;;
19579;SDS011;9936;51.040;13.918;2023-11-21T23:39:57;11.97;;;7.23;;
19579;SDS011;9936;51.040;13.918;2023-11-21T23:43:44;10.30;;;7.00;;
19579;SDS011;9936;51.040;13.918;2023-11-21T23:47:29;10.70;;;7.80;;
19579;SDS011;9936;51.040;13.918;2023-11-21T23:51:15;12.70;;;7.60;;
19579;SDS011;9936;51.040;13.918;2023-11-21T23:55:01;12.50;;;8.37;;
19579;SDS011;9936;51.040;13.918;2023-11-21T23:58:48;12.57;;;8.50;;
